Time;durP1;ratioP1;P1;durP2;ratioP2;P2;SDS_P1;SDS_P2;PMS_P1;PMS_P2;Temp;Humidity;BMP_temperature;BMP_pressure;BME280_temperature;BME280_humidity;BME280_pressure;Samples;Min_cycle;Max_cycle;Signal;HPM_P1;HPM_P2
2021/11/24 00:02:09;;;;;;;26.07;17.55;;;;;;;3.61;83.94;97396.02;1767040;81;20967;-82
2021/11/24 00:04:35;;;;;;;21.57;13.80;;;;;;;3.53;83.99;97397.03;1766916;81;21023;-82
2021/11/24 00:07:00;;;;;;;21.12;13.72;;;;;;;3.51;84.10;97394.23;1766722;81;20991;-82
2021/11/24 00:09:26;;;;;;;19.35;14.13;;;;;;;3.53;84.26;97398.31;1743482;81;21017;-82
2021/11/24 00:11:52;;;;;;;73.57;36.13;;;;;;;3.58;84.26;97391.58;1766783;81;21468;-82
2021/11/24 00:14:19;;;;;;;110.10;46.80;;;;;;;3.63;84.26;97391.23;1766626;81;21416;-82
2021/11/24 00:16:44;;;;;;;49.08;25.97;;;;;;;3.62;84.25;97385.27;1766960;81;20991;-82
2021/11/24 00:19:10;;;;;;;45.83;25.02;;;;;;;3.65;84.31;97385.03;1766634;81;21438;-82
2021/11/24 00:21:36;;;;;;;29.70;19.75;;;;;;;3.67;84.52;97387.48;1764986;81;21059;-82
2021/11/24 00:24:02;;;;;;;33.25;20.95;;;;;;;3.65;84.37;97388.89;1763865;81;20983;-82
2021/11/24 00:26:28;;;;;;;30.02;17.10;;;;;;;3.63;84.37;97389.94;1763547;81;21050;-82
2021/11/24 00:28:54;;;;;;;19.98;14.80;;;;;;;3.68;84.47;97389.94;1763985;81;21302;-82
2021/11/24 00:31:20;;;;;;;24.27;16.60;;;;;;;3.67;84.21;97394.73;1768942;79;20966;-82
2021/11/24 00:33:46;;;;;;;20.37;14.95;;;;;;;3.69;84.40;97394.14;1776846;80;21102;-82
2021/11/24 00:36:11;;;;;;;21.65;17.00;;;;;;;3.67;84.22;97387.48;1795156;80;20990;-82
2021/11/24 00:38:37;;;;;;;18.55;15.38;;;;;;;3.59;84.24;97387.60;1795199;80;20904;-82
2021/11/24 00:41:03;;;;;;;17.12;13.10;;;;;;;3.55;84.36;97386.64;1795139;80;21022;-82
2021/11/24 00:43:29;;;;;;;16.62;13.32;;;;;;;3.47;84.20;97387.22;1795128;80;21417;-82
2021/11/24 00:45:54;;;;;;;15.00;13.10;;;;;;;3.47;84.37;97390.25;1794928;80;20995;-82
2021/11/24 00:48:21;;;;;;;99.52;46.95;;;;;;;3.47;84.40;97382.55;1766434;80;21077;-82
2021/11/24 00:50:47;;;;;;;60.98;30.72;;;;;;;3.52;84.60;97379.16;1795173;80;20959;-82
2021/11/24 00:53:14;;;;;;;62.98;29.52;;;;;;;3.56;84.61;97379.28;1795077;80;20986;-82
2021/11/24 00:55:41;;;;;;;59.95;30.08;;;;;;;3.60;84.69;97383.28;1794796;80;21066;-83
2021/11/24 00:58:07;;;;;;;39.05;24.82;;;;;;;3.61;84.60;97377.20;1795198;80;21290;-82
2021/11/24 01:00:33;;;;;;;29.50;18.77;;;;;;;3.55;84.64;97378.45;1795080;80;20956;-82
2021/11/24 01:02:58;;;;;;;25.08;17.35;;;;;;;3.59;84.83;97378.61;1795029;80;20963;-82
2021/11/24 01:05:24;;;;;;;16.42;12.53;;;;;;;3.65;84.71;97382.93;1795276;80;20947;-82
2021/11/24 01:07:50;;;;;;;13.78;10.45;;;;;;;3.65;84.47;97377.79;1766666;80;20951;-82
2021/11/24 01:10:16;;;;;;;13.18;11.22;;;;;;;3.59;84.34;97380.36;1795199;80;20967;-82
2021/11/24 01:12:43;;;;;;;11.45;10.28;;;;;;;3.53;84.29;97378.23;1795333;80;21295;-82
2021/11/24 01:15:09;;;;;;;10.95;8.40;;;;;;;3.45;84.24;97381.38;1795395;80;21350;-82
2021/11/24 01:17:35;;;;;;;11.10;9.35;;;;;;;3.37;84.42;97377.72;1795170;80;20978;-82
2021/11/24 01:20:02;;;;;;;10.85;8.70;;;;;;;3.40;84.71;97386.48;1795150;80;20987;-83
2021/11/24 01:22:27;;;;;;;8.83;7.92;;;;;;;3.43;84.79;97384.99;1797361;80;21011;-82
2021/11/24 01:24:53;;;;;;;11.33;9.33;;;;;;;3.40;84.65;97379.59;1798032;80;20983;-82
2021/11/24 01:27:19;;;;;;;12.47;9.95;;;;;;;3.39;84.79;97380.99;1798400;80;20962;-82
2021/11/24 01:29:45;;;;;;;12.20;9.98;;;;;;;3.44;85.06;97382.78;1797983;80;21373;-82
2021/11/24 01:32:11;;;;;;;20.57;15.85;;;;;;;3.49;85.20;97372.97;1792959;80;21089;-82
2021/11/24 01:34:37;;;;;;;16.60;13.68;;;;;;;3.51;85.13;97371.10;1748084;81;21021;-82
2021/11/24 01:37:03;;;;;;;12.45;10.30;;;;;;;3.49;85.23;97368.64;1733780;83;20977;-82
2021/11/24 01:39:29;;;;;;;13.40;11.08;;;;;;;3.48;85.01;97368.30;1760423;81;20930;-82
2021/11/24 01:41:56;;;;;;;9.68;8.15;;;;;;;3.46;84.89;97365.02;1760080;81;20989;-82
2021/11/24 01:44:27;;;;;;;9.28;8.28;;;;;;;3.48;84.89;97372.15;1760493;81;21020;-82
2021/11/24 01:46:57;;;;;;;9.80;6.72;;;;;;;3.44;84.80;97360.94;1760353;81;20938;-82
2021/11/24 01:49:23;;;;;;;10.90;7.85;;;;;;;3.41;84.87;97364.52;1760546;81;20981;-82
2021/11/24 01:51:50;;;;;;;8.93;8.03;;;;;;;3.37;85.00;97370.02;1760496;81;21392;-82
2021/11/24 01:54:16;;;;;;;7.97;7.10;;;;;;;3.37;85.26;97364.41;1760231;81;21404;-82
2021/11/24 01:56:43;;;;;;;7.60;6.75;;;;;;;3.29;85.14;97366.27;1760118;81;21424;-82
2021/11/24 01:59:10;;;;;;;7.97;6.50;;;;;;;3.26;85.13;97365.22;1760532;81;20954;-82
2021/11/24 02:01:38;;;;;;;7.03;5.42;;;;;;;3.28;85.40;97371.05;1760358;81;21359;-82
2021/11/24 02:04:04;;;;;;;6.65;5.17;;;;;;;3.34;85.48;97375.38;1760473;81;21004;-82
2021/11/24 02:06:30;;;;;;;5.50;4.87;;;;;;;3.39;85.65;97374.56;1760399;81;20976;-82
2021/11/24 02:08:56;;;;;;;5.97;4.65;;;;;;;3.39;85.46;97376.67;1760280;81;21056;-82
2021/11/24 02:11:22;;;;;;;6.50;5.30;;;;;;;3.31;85.44;97381.56;1760457;81;21356;-82
2021/11/24 02:13:47;;;;;;;7.60;6.00;;;;;;;3.31;85.44;97381.56;1760550;81;21384;-82
2021/11/24 02:16:13;;;;;;;8.05;6.55;;;;;;;3.30;85.83;97375.61;1760417;81;21041;-82
2021/11/24 02:18:39;;;;;;;9.28;7.22;;;;;;;3.32;85.91;97372.92;1760393;81;20958;-82
2021/11/24 02:21:05;;;;;;;7.45;6.65;;;;;;;3.34;85.86;97376.66;1759843;81;21025;-82
2021/11/24 02:23:31;;;;;;;8.98;7.70;;;;;;;3.34;85.67;97374.91;1757568;82;21391;-82
2021/11/24 02:25:57;;;;;;;12.45;7.42;;;;;;;3.35;85.64;97369.31;1757412;81;21060;-82
2021/11/24 02:28:24;;;;;;;13.22;10.28;;;;;;;3.32;85.65;97366.50;1757157;82;21001;-82
2021/11/24 02:30:51;;;;;;;25.48;20.50;;;;;;;3.30;85.75;97364.52;1760773;80;21386;-82
2021/11/24 02:33:17;;;;;;;26.45;17.32;;;;;;;3.30;85.75;97364.52;1775801;80;20973;-82
2021/11/24 02:35:44;;;;;;;18.20;13.90;;;;;;;3.25;85.73;97361.01;1795146;80;20968;-82
2021/11/24 02:38:10;;;;;;;14.43;12.18;;;;;;;3.27;85.85;97358.33;1795321;80;20997;-82
2021/11/24 02:40:36;;;;;;;14.05;11.18;;;;;;;3.26;85.79;97366.97;1795307;80;20965;-82
2021/11/24 02:43:04;;;;;;;11.35;9.53;;;;;;;3.24;85.76;97364.48;1795184;80;21391;-82
2021/11/24 02:45:29;;;;;;;8.58;7.25;;;;;;;3.26;85.83;97353.66;1795239;80;20996;-82
2021/11/24 02:47:55;;;;;;;7.20;5.78;;;;;;;3.21;85.64;97363.42;1795281;80;21363;-82
2021/11/24 02:50:22;;;;;;;6.35;4.75;;;;;;;3.12;85.59;97358.98;1795110;80;20985;-82
2021/11/24 02:52:48;;;;;;;6.42;4.90;;;;;;;3.07;85.65;97355.08;1795194;80;21036;-82
2021/11/24 02:55:14;;;;;;;5.42;4.37;;;;;;;3.07;85.72;97362.79;1795083;80;21009;-82
2021/11/24 02:57:44;;;;;;;4.67;3.80;;;;;;;3.06;85.63;97362.44;1794884;80;21437;-82
2021/11/24 03:00:25;;;;;;;3.83;3.27;;;;;;;3.08;85.68;97354.97;1795206;80;21012;-82
2021/11/24 03:02:50;;;;;;;4.55;4.05;;;;;;;3.05;85.49;97359.52;1795309;80;20950;-81
2021/11/24 03:05:20;;;;;;;4.00;3.58;;;;;;;3.05;85.78;97360.33;1795186;80;20977;-82
2021/11/24 03:07:45;;;;;;;5.25;3.52;;;;;;;3.06;86.12;97355.55;1795168;80;21407;-82
2021/11/24 03:10:11;;;;;;;3.40;3.08;;;;;;;3.04;85.87;97355.31;1795150;80;21012;-82
2021/11/24 03:12:38;;;;;;;4.42;3.22;;;;;;;3.03;85.88;97351.11;1795289;80;20961;-82
2021/11/24 03:15:06;;;;;;;4.87;3.37;;;;;;;3.03;85.93;97348.08;1795303;80;21371;-81
2021/11/24 03:17:32;;;;;;;4.42;3.17;;;;;;;3.06;85.92;97350.41;1795170;80;21011;-82
2021/11/24 03:19:58;;;;;;;3.62;3.25;;;;;;;3.11;86.20;97346.25;1795124;80;21000;-82
2021/11/24 03:22:25;;;;;;;3.35;2.92;;;;;;;3.14;86.32;97350.69;1795080;80;21072;-82
2021/11/24 03:24:56;;;;;;;3.87;2.55;;;;;;;3.14;86.29;97346.84;1795090;80;21040;-82
2021/11/24 03:27:31;;;;;;;2.52;2.20;;;;;;;3.14;86.20;97351.16;1794961;80;21040;-82
2021/11/24 03:29:58;;;;;;;4.45;2.58;;;;;;;3.13;86.19;97346.48;1794772;80;20997;-82
2021/11/24 03:32:24;;;;;;;2.80;2.25;;;;;;;3.10;85.88;97345.44;1794996;80;21327;-82
2021/11/24 03:34:49;;;;;;;5.47;3.00;;;;;;;3.08;85.40;97349.02;1795128;80;21463;-82
2021/11/24 03:37:17;;;;;;;5.80;3.50;;;;;;;3.04;85.29;97350.17;1795122;80;20964;-82
2021/11/24 03:39:44;;;;;;;7.37;3.77;;;;;;;3.01;85.46;97353.79;1795233;80;21048;-82
2021/11/24 03:42:10;;;;;;;3.12;2.83;;;;;;;3.04;85.96;97348.89;1795048;80;20957;-82
2021/11/24 03:44:36;;;;;;;2.58;2.20;;;;;;;3.05;86.18;97353.09;1795134;80;21039;-82
2021/11/24 03:47:02;;;;;;;3.35;2.40;;;;;;;3.09;86.22;97346.37;1795257;80;20976;-82
2021/11/24 03:49:28;;;;;;;6.50;3.60;;;;;;;3.13;86.11;97349.05;1795094;80;20957;-82
2021/11/24 03:51:54;;;;;;;3.17;2.65;;;;;;;3.17;86.09;97349.64;1794994;80;20993;-82
2021/11/24 03:54:20;;;;;;;4.20;3.80;;;;;;;3.23;86.16;97344.05;1795013;80;21040;-82
2021/11/24 03:56:45;;;;;;;4.50;4.05;;;;;;;3.27;86.14;97344.20;1794884;80;20997;-82
2021/11/24 03:59:11;;;;;;;6.10;4.95;;;;;;;3.27;86.03;97341.63;1795011;80;20984;-82
2021/11/24 04:01:37;;;;;;;10.78;8.53;;;;;;;3.26;85.87;97333.58;1795207;80;21004;-82
2021/11/24 04:04:03;;;;;;;11.05;7.00;;;;;;;3.20;85.54;97326.30;1795002;80;20973;-82
2021/11/24 04:06:29;;;;;;;6.85;5.10;;;;;;;3.14;85.38;97332.72;1789218;79;21456;-82
2021/11/24 04:08:56;;;;;;;4.95;4.37;;;;;;;3.14;85.50;97322.44;1790689;80;20989;-82
2021/11/24 04:11:22;;;;;;;6.47;3.70;;;;;;;3.16;85.50;97321.05;1795242;80;21486;-82
2021/11/24 04:13:48;;;;;;;4.95;4.03;;;;;;;3.16;85.65;97319.76;1794851;80;21084;-82
2021/11/24 04:16:13;;;;;;;5.08;4.10;;;;;;;3.17;85.76;97322.22;1795056;80;21014;-82
2021/11/24 04:18:39;;;;;;;4.25;3.42;;;;;;;3.17;85.80;97311.13;1795027;80;20941;-82
2021/11/24 04:21:05;;;;;;;3.60;2.95;;;;;;;3.12;85.53;97307.62;1795337;80;21005;-82
2021/11/24 04:23:31;;;;;;;3.92;2.75;;;;;;;3.05;85.29;97312.83;1797932;80;21450;-82
2021/11/24 04:25:56;;;;;;;4.28;3.52;;;;;;;2.99;85.12;97308.16;1797954;80;21036;-82
2021/11/24 04:28:22;;;;;;;8.45;7.10;;;;;;;2.94;85.20;97314.10;1798212;80;20922;-82
2021/11/24 04:30:48;;;;;;;6.97;6.30;;;;;;;2.90;85.27;97309.63;1798230;80;20963;-82
2021/11/24 04:33:14;;;;;;;3.05;2.75;;;;;;;2.81;85.06;97306.46;1798162;80;21049;-82
2021/11/24 04:35:40;;;;;;;3.05;2.50;;;;;;;2.77;85.35;97310.66;1798059;80;21363;-82
2021/11/24 04:38:06;;;;;;;2.80;2.50;;;;;;;2.72;85.49;97314.81;1798281;80;21304;-82
2021/11/24 04:40:32;;;;;;;2.42;2.22;;;;;;;2.71;85.61;97311.89;1798330;80;20937;-82
2021/11/24 04:43:01;;;;;;;2.80;2.60;;;;;;;2.71;85.75;97311.43;1798293;80;21019;-82
2021/11/24 04:45:26;;;;;;;2.17;1.87;;;;;;;2.76;85.85;97300.82;1798291;80;21013;-82
2021/11/24 04:47:52;;;;;;;2.87;2.42;;;;;;;2.75;85.73;97304.32;1798354;80;21040;-82
2021/11/24 04:50:18;;;;;;;1.90;1.70;;;;;;;2.75;85.57;97300.47;1798472;80;21119;-82
2021/11/24 04:52:46;;;;;;;3.08;2.20;;;;;;;2.74;85.77;97305.25;1798372;80;20981;-82
2021/11/24 04:55:12;;;;;;;2.62;2.20;;;;;;;2.71;85.92;97299.88;1798119;80;21008;-81
2021/11/24 04:57:38;;;;;;;6.45;5.10;;;;;;;2.70;86.02;97296.96;1798198;80;21047;-81
2021/11/24 05:00:13;;;;;;;13.62;12.43;;;;;;;2.72;86.16;97294.28;1798121;80;20957;-82
2021/11/24 05:02:38;;;;;;;5.12;4.72;;;;;;;2.73;86.23;97299.77;1798207;80;21060;-82
2021/11/24 05:05:04;;;;;;;2.33;2.08;;;;;;;2.76;86.23;97288.45;1798417;80;20969;-82
2021/11/24 05:07:30;;;;;;;4.55;4.08;;;;;;;2.76;86.23;97288.45;1780672;80;20949;-82
2021/11/24 05:09:56;;;;;;;3.30;3.00;;;;;;;2.77;86.10;97292.69;1793102;80;21474;-82
2021/11/24 05:12:22;;;;;;;5.55;5.05;;;;;;;2.67;85.54;97279.22;1798353;80;21491;-81
2021/11/24 05:14:49;;;;;;;4.22;3.87;;;;;;;2.69;85.39;97294.05;1798306;80;21079;-82
2021/11/24 05:17:18;;;;;;;3.90;3.20;;;;;;;2.70;85.62;97296.14;1798153;80;20997;-82
2021/11/24 05:19:47;;;;;;;4.83;4.28;;;;;;;2.71;85.48;97288.80;1798402;80;20961;-82
2021/11/24 05:22:11;;;;;;;6.58;6.08;;;;;;;2.73;84.72;97292.06;1797108;80;21072;-82
2021/11/24 05:24:37;;;;;;;6.62;4.83;;;;;;;2.75;84.76;97292.77;1795222;80;21709;-82
2021/11/24 05:27:04;;;;;;;33.92;23.27;;;;;;;2.77;85.17;97291.41;1795386;80;21028;-82
2021/11/24 05:29:29;;;;;;;17.37;15.00;;;;;;;2.78;85.26;97288.73;1795206;80;21024;-82
2021/11/24 05:31:55;;;;;;;4.65;3.90;;;;;;;2.78;85.31;97294.33;1795650;80;20988;-82
2021/11/24 05:34:21;;;;;;;2.85;2.33;;;;;;;2.76;85.48;97289.73;1795249;80;20988;-82
2021/11/24 05:36:47;;;;;;;3.55;3.25;;;;;;;2.75;85.59;97291.48;1794981;80;20961;-82
2021/11/24 05:39:13;;;;;;;4.40;3.95;;;;;;;2.76;85.35;97293.13;1795368;80;20945;-82
2021/11/24 05:41:41;;;;;;;3.87;3.27;;;;;;;2.77;84.92;97289.66;1765139;80;21013;-82
2021/11/24 05:44:47;;;;;;;8.38;7.67;;;;;;;2.82;85.67;97296.55;1795400;80;21343;-82
2021/11/24 05:46:54;;;;;;;4.83;4.42;;;;;;;2.84;85.29;97288.27;1777966;80;21048;-82
2021/11/24 05:49:19;;;;;;;7.03;6.42;;;;;;;2.89;85.76;97289.20;1795184;80;20973;-82
2021/11/24 05:51:45;;;;;;;4.08;3.67;;;;;;;2.90;85.66;97286.99;1795246;80;21036;-82
2021/11/24 05:54:13;;;;;;;3.80;2.80;;;;;;;2.89;85.81;97284.08;1795178;80;21088;-82
2021/11/24 05:56:39;;;;;;;2.80;2.60;;;;;;;2.89;85.64;97287.92;1795093;80;22027;-82
2021/11/24 05:59:07;;;;;;;3.27;2.52;;;;;;;2.90;85.64;97287.81;1794914;80;21076;-82
2021/11/24 06:01:34;;;;;;;3.67;3.37;;;;;;;2.90;84.69;97295.98;1795241;80;21024;-82
2021/11/24 06:04:00;;;;;;;3.30;3.00;;;;;;;2.86;84.53;97290.72;1795130;80;20949;-82
2021/11/24 06:06:26;;;;;;;3.10;2.90;;;;;;;2.86;84.83;97292.83;1795209;80;21326;-82
2021/11/24 06:08:51;;;;;;;4.03;3.52;;;;;;;2.87;84.81;97291.89;1795044;80;21008;-82
2021/11/24 06:11:17;;;;;;;3.67;3.37;;;;;;;2.87;85.10;97291.89;1794942;80;20976;-82
2021/11/24 06:13:43;;;;;;;2.98;2.58;;;;;;;2.86;85.36;97295.39;1795159;80;22219;-82
2021/11/24 06:16:09;;;;;;;4.22;3.83;;;;;;;2.88;84.60;97292.24;1795471;80;21371;-82
2021/11/24 06:18:34;;;;;;;3.47;3.17;;;;;;;2.88;84.60;97292.24;1795204;80;21000;-82
2021/11/24 06:21:00;;;;;;;4.00;3.70;;;;;;;2.91;84.67;97292.02;1766411;80;20993;-82
2021/11/24 06:23:26;;;;;;;3.55;3.25;;;;;;;2.93;85.01;97286.33;1797101;80;21033;-82
2021/11/24 06:25:52;;;;;;;3.52;3.22;;;;;;;2.95;84.82;97290.06;1798028;80;20961;-81
2021/11/24 06:28:17;;;;;;;4.00;3.60;;;;;;;2.94;85.07;97287.14;1797869;80;21466;-82
2021/11/24 06:30:43;;;;;;;2.95;2.65;;;;;;;2.84;84.85;97279.75;1798483;80;20957;-82
2021/11/24 06:33:10;;;;;;;2.87;2.42;;;;;;;2.84;84.85;97279.75;1798136;80;21001;-82
2021/11/24 06:35:36;;;;;;;3.85;3.55;;;;;;;2.93;85.36;97297.06;1798092;80;20993;-82
2021/11/24 06:38:01;;;;;;;6.25;5.75;;;;;;;2.96;85.25;97300.22;1798092;80;20937;-82
2021/11/24 06:40:27;;;;;;;6.45;5.85;;;;;;;3.00;84.85;97304.19;1798079;80;21017;-82
2021/11/24 06:42:53;;;;;;;4.35;3.75;;;;;;;2.94;83.75;97301.27;1797967;80;21355;-82
2021/11/24 06:45:20;;;;;;;4.97;4.58;;;;;;;2.94;83.75;97301.27;1798187;80;21045;-82
2021/11/24 06:47:46;;;;;;;5.92;5.40;;;;;;;2.91;83.34;97301.46;1798183;80;21008;-82
2021/11/24 06:50:13;;;;;;;5.60;5.20;;;;;;;2.87;83.22;97305.19;1798277;80;20941;-82
2021/11/24 06:52:39;;;;;;;7.78;6.97;;;;;;;2.87;83.68;97308.58;1798048;80;21032;-82
2021/11/24 06:55:06;;;;;;;4.62;4.22;;;;;;;2.87;83.33;97309.86;1798214;80;20961;-82
2021/11/24 06:57:34;;;;;;;9.10;8.20;;;;;;;2.91;83.37;97308.70;1797992;80;21001;-82
2021/11/24 06:59:59;;;;;;;14.95;12.78;;;;;;;2.93;83.26;97315.85;1798254;80;21100;-82
2021/11/24 07:02:25;;;;;;;8.68;7.75;;;;;;;2.94;83.40;97319.23;1783482;78;21107;-82
2021/11/24 07:04:51;;;;;;;10.60;8.48;;;;;;;2.96;83.24;97324.61;1797925;80;20965;-82
2021/11/24 07:07:17;;;;;;;9.63;5.87;;;;;;;2.96;83.20;97307.10;1772536;80;20940;-82
2021/11/24 07:09:43;;;;;;;9.88;4.85;;;;;;;2.96;83.20;97307.10;1798264;80;21363;-82
2021/11/24 07:12:09;;;;;;;8.23;5.17;;;;;;;3.05;82.89;97315.40;1798305;80;20984;-82
2021/11/24 07:14:35;;;;;;;8.00;6.50;;;;;;;3.09;82.92;97314.70;1798033;80;21358;-82
2021/11/24 07:17:02;;;;;;;12.73;9.70;;;;;;;3.11;82.80;97316.25;1798025;80;20976;-82
2021/11/24 07:19:28;;;;;;;7.00;5.17;;;;;;;3.14;82.87;97317.77;1797957;80;21036;-81
2021/11/24 07:21:53;;;;;;;7.33;6.58;;;;;;;3.10;82.34;97321.04;1798202;80;21415;-82
2021/11/24 07:24:19;;;;;;;9.93;6.78;;;;;;;3.05;82.38;97323.10;1794990;80;20961;-82
2021/11/24 07:26:45;;;;;;;15.30;12.68;;;;;;;3.04;82.31;97325.78;1794976;80;21028;-82
2021/11/24 07:29:12;;;;;;;8.85;6.20;;;;;;;3.04;82.18;97325.78;1765964;80;21012;-82
2021/11/24 07:31:38;;;;;;;8.05;5.72;;;;;;;3.02;82.22;97319.48;1794870;80;21396;-82
2021/11/24 07:34:04;;;;;;;14.28;8.53;;;;;;;3.05;82.41;97323.10;1794965;80;20977;-82
2021/11/24 07:36:29;;;;;;;18.23;11.30;;;;;;;3.06;82.63;97316.22;1765157;80;20969;-82
2021/11/24 07:38:55;;;;;;;35.73;17.87;;;;;;;3.12;82.87;97322.20;1794837;80;22018;-82
2021/11/24 07:41:21;;;;;;;24.75;15.63;;;;;;;3.14;83.00;97319.05;1795030;80;21308;-82
2021/11/24 07:43:47;;;;;;;14.90;11.30;;;;;;;3.12;82.78;97314.50;1794918;80;20976;-82
2021/11/24 07:46:12;;;;;;;11.93;8.73;;;;;;;3.11;82.76;97307.27;1795033;80;21020;-82
2021/11/24 07:48:38;;;;;;;19.00;12.63;;;;;;;3.11;82.28;97311.12;1794989;80;20977;-82
2021/11/24 07:51:04;;;;;;;16.07;10.85;;;;;;;3.16;82.30;97306.92;1794902;80;20929;-82
2021/11/24 07:53:30;;;;;;;22.87;12.50;;;;;;;3.21;82.48;97306.10;1734623;81;21334;-83
2021/11/24 07:55:56;;;;;;;20.60;13.45;;;;;;;3.26;82.78;97308.70;1761950;81;21385;-82
2021/11/24 07:58:22;;;;;;;18.07;11.83;;;;;;;3.33;82.72;97308.23;1761855;81;21077;-82
2021/11/24 08:00:48;;;;;;;21.33;12.68;;;;;;;3.34;82.36;97311.16;1762108;81;20958;-82
2021/11/24 08:03:14;;;;;;;21.80;13.38;;;;;;;3.36;82.48;97310.11;1748994;80;21026;-82
2021/11/24 08:05:40;;;;;;;25.48;13.25;;;;;;;3.37;82.34;97308.36;1762091;81;20951;-81
2021/11/24 08:08:05;;;;;;;20.55;11.97;;;;;;;3.40;82.21;97314.08;1762496;81;21321;-82
2021/11/24 08:10:31;;;;;;;10.78;8.60;;;;;;;3.46;82.54;97311.54;1761874;81;21070;-82
2021/11/24 08:12:57;;;;;;;10.68;8.18;;;;;;;3.47;81.96;97311.88;1761877;81;21033;-82
2021/11/24 08:15:23;;;;;;;8.75;7.10;;;;;;;3.42;81.69;97312.70;1762166;81;20986;-82
2021/11/24 08:17:49;;;;;;;8.90;7.33;;;;;;;3.35;81.79;97311.51;1762222;81;21001;-82
2021/11/24 08:20:15;;;;;;;13.50;10.53;;;;;;;3.31;81.37;97313.49;1762135;81;21309;-82
2021/11/24 08:22:41;;;;;;;17.75;12.07;;;;;;;3.31;81.85;97317.34;1761737;81;21121;-82
2021/11/24 08:25:08;;;;;;;17.00;10.95;;;;;;;3.31;81.95;97314.78;1762374;81;21388;-82
2021/11/24 08:27:35;;;;;;;14.23;9.83;;;;;;;3.31;81.40;97322.48;1762290;81;21080;-82
2021/11/24 08:30:04;;;;;;;17.27;10.93;;;;;;;3.33;81.43;97322.37;1762128;81;20974;-82
2021/11/24 08:32:29;;;;;;;21.85;10.30;;;;;;;3.40;81.44;97315.83;1762218;81;21014;-82
2021/11/24 08:34:55;;;;;;;16.85;8.75;;;;;;;3.43;80.76;97313.88;1761858;81;21017;-82
2021/11/24 08:37:21;;;;;;;15.88;8.13;;;;;;;3.45;80.83;97313.75;1762029;81;20998;-82
2021/11/24 08:39:48;;;;;;;10.30;7.55;;;;;;;3.46;81.08;97312.82;1761818;81;21027;-82
2021/11/24 08:42:15;;;;;;;14.55;8.75;;;;;;;3.48;80.95;97314.80;1761693;81;21368;-82
2021/11/24 08:44:41;;;;;;;8.60;7.58;;;;;;;3.49;81.00;97313.41;1762206;81;21345;-82
2021/11/24 08:47:07;;;;;;;10.70;8.65;;;;;;;3.53;80.99;97314.80;1762354;81;21285;-82
2021/11/24 08:49:33;;;;;;;11.88;9.13;;;;;;;3.61;81.48;97322.77;1762108;81;21369;-82
2021/11/24 08:51:59;;;;;;;14.07;9.88;;;;;;;3.67;81.11;97328.38;1762192;81;21000;-81
2021/11/24 08:54:26;;;;;;;17.82;12.25;;;;;;;3.69;80.68;97317.50;1762246;81;21463;-82
2021/11/24 08:56:53;;;;;;;16.90;10.72;;;;;;;3.74;80.67;97329.53;1762154;81;21058;-82
2021/11/24 08:59:19;;;;;;;12.30;9.20;;;;;;;3.74;80.63;97326.96;1762157;81;20986;-82
2021/11/24 09:01:46;;;;;;;17.48;11.20;;;;;;;3.76;80.86;97325.13;1756702;80;21079;-82
2021/11/24 09:04:12;;;;;;;14.38;9.35;;;;;;;3.80;81.15;97325.23;1746955;81;21411;-82
2021/11/24 09:06:37;;;;;;;15.88;9.70;;;;;;;3.82;81.01;97322.89;1727115;83;21016;-82
2021/11/24 09:09:05;;;;;;;6.12;5.03;;;;;;;3.81;80.39;97324.30;1730899;83;21008;-82
2021/11/24 09:11:30;;;;;;;6.92;4.72;;;;;;;3.82;79.84;97319.50;1730498;83;21017;-82
2021/11/24 09:13:56;;;;;;;5.97;4.55;;;;;;;3.82;79.67;97311.79;1757313;81;21017;-82
2021/11/24 09:16:22;;;;;;;8.00;5.83;;;;;;;3.88;79.82;97317.73;1729775;82;20994;-82
2021/11/24 09:18:48;;;;;;;10.08;7.35;;;;;;;3.90;79.68;97310.72;1757228;82;20969;-82
2021/11/24 09:21:14;;;;;;;8.63;6.12;;;;;;;3.95;79.86;97312.49;1757470;81;20934;-82
2021/11/24 09:23:42;;;;;;;12.78;7.83;;;;;;;3.97;79.71;97311.91;1757024;82;21379;-82
2021/11/24 09:28:42;;;;;;;26.90;12.65;;;;;;;3.95;79.74;97306.06;1757393;82;21143;-82
2021/11/24 09:31:08;;;;;;;20.65;12.33;;;;;;;3.93;79.31;97296.84;1757415;82;21001;-82
2021/11/24 09:33:34;;;;;;;27.02;13.13;;;;;;;3.93;79.10;97291.23;1757411;82;21036;-82
2021/11/24 09:36:02;;;;;;;18.50;10.48;;;;;;;3.97;79.26;97298.23;1757460;82;20989;-82
2021/11/24 09:38:30;;;;;;;14.58;9.48;;;;;;;3.99;79.05;97290.74;1757604;82;20958;-82
2021/11/24 09:40:56;;;;;;;21.07;10.98;;;;;;;4.05;79.18;97292.01;1757400;82;21332;-82
2021/11/24 09:43:22;;;;;;;17.25;10.23;;;;;;;4.08;79.07;97295.19;1757397;82;20993;-82
2021/11/24 09:45:48;;;;;;;19.12;10.40;;;;;;;4.09;79.11;97289.11;1729843;82;21358;-82
2021/11/24 09:48:17;;;;;;;25.65;13.68;;;;;;;4.12;79.46;97283.72;1757275;82;21012;-82
2021/11/24 09:50:46;;;;;;;11.28;8.33;;;;;;;4.08;78.93;97291.33;1757348;81;21399;-82
2021/11/24 09:53:12;;;;;;;11.78;6.10;;;;;;;4.05;79.01;97285.58;1757558;82;20974;-82
2021/11/24 09:55:40;;;;;;;8.40;6.12;;;;;;;4.07;78.62;97285.84;1757632;82;21021;-82
2021/11/24 09:58:08;;;;;;;10.28;7.50;;;;;;;4.11;78.70;97288.98;1757227;82;21096;-82
2021/11/24 10:00:35;;;;;;;11.90;9.05;;;;;;;4.14;78.58;97285.70;1757256;82;21432;-82
2021/11/24 10:03:01;;;;;;;9.43;6.80;;;;;;;4.15;78.75;97287.33;1757236;82;21052;-82
2021/11/24 10:05:28;;;;;;;6.58;4.80;;;;;;;4.16;78.41;97279.14;1757242;81;21065;-82
2021/11/24 10:07:54;;;;;;;5.30;4.60;;;;;;;4.15;78.12;97283.47;1757301;82;21420;-82
2021/11/24 10:10:20;;;;;;;8.28;4.28;;;;;;;4.15;77.93;97281.37;1757354;82;20993;-82
2021/11/24 10:12:45;;;;;;;2.80;2.45;;;;;;;4.12;77.75;97276.00;1757329;82;21289;-82
2021/11/24 10:15:31;;;;;;;3.40;1.92;;;;;;;4.03;77.17;97275.41;1757235;81;21382;-82
2021/11/24 10:18:21;;;;;;;6.10;3.65;;;;;;;3.97;77.00;97280.23;1757581;82;21675;-82
2021/11/24 10:21:05;;;;;;;3.17;2.70;;;;;;;3.97;77.09;97279.77;1756914;81;20981;-82
2021/11/24 10:23:38;;;;;;;4.80;3.60;;;;;;;3.89;76.96;97273.91;1758138;81;21001;-83
2021/11/24 10:26:32;;;;;;;3.72;3.25;;;;;;;3.83;77.02;97272.29;1760232;81;21004;-82
2021/11/24 10:29:10;;;;;;;4.62;3.22;;;;;;;3.85;77.48;97276.84;1759423;81;21062;-82
2021/11/24 10:31:41;;;;;;;3.70;2.87;;;;;;;3.85;77.49;97275.09;1760451;81;20980;-82
2021/11/24 10:34:17;;;;;;;3.45;2.87;;;;;;;3.89;77.71;97273.09;1773846;78;21021;-82
2021/11/24 10:37:05;;;;;;;3.17;2.85;;;;;;;3.90;77.25;97266.58;1772358;80;21333;-82
2021/11/24 10:39:36;;;;;;;3.77;3.20;;;;;;;3.96;77.89;97263.16;1759747;81;21073;-82
2021/11/24 10:42:15;;;;;;;3.30;3.00;;;;;;;4.03;77.75;97259.98;1760423;81;21085;-82
2021/11/24 10:44:51;;;;;;;3.67;3.27;;;;;;;4.07;77.21;97257.55;1760323;81;21013;-82
2021/11/24 10:47:17;;;;;;;3.37;2.25;;;;;;;4.10;77.13;97253.91;1746374;81;20945;-82
2021/11/24 10:49:50;;;;;;;2.98;2.67;;;;;;;4.12;77.18;97249.46;1760630;81;20934;-82
2021/11/24 10:52:27;;;;;;;4.78;3.20;;;;;;;4.15;76.95;97242.78;1760414;81;20977;-82
2021/11/24 10:55:11;;;;;;;4.05;3.35;;;;;;;4.15;76.94;97244.07;1760213;81;21073;-82
2021/11/24 10:57:39;;;;;;;6.53;4.15;;;;;;;4.14;77.13;97235.54;1760288;81;21011;-82
2021/11/24 11:00:11;;;;;;;4.22;2.90;;;;;;;4.10;76.73;97236.73;1760314;81;21005;-82
2021/11/24 11:02:42;;;;;;;3.02;2.33;;;;;;;4.11;77.05;97233.69;1758227;81;20990;-82
2021/11/24 11:05:18;;;;;;;3.45;3.15;;;;;;;4.14;77.04;97237.30;1760308;81;21012;-82
2021/11/24 11:07:52;;;;;;;3.35;2.47;;;;;;;4.17;76.23;97239.63;1760381;81;21004;-82
2021/11/24 11:10:22;;;;;;;3.50;3.20;;;;;;;4.13;75.40;97223.62;1753033;81;20993;-82
2021/11/24 11:12:56;;;;;;;3.02;2.70;;;;;;;4.09;75.15;97226.09;1760492;81;21039;-83
2021/11/24 11:15:43;;;;;;;3.75;3.30;;;;;;;4.09;76.31;97223.99;1759963;81;21392;-82
2021/11/24 11:18:29;;;;;;;6.75;4.22;;;;;;;4.11;76.16;97219.06;1760389;81;21033;-82
2021/11/24 11:21:10;;;;;;;2.80;2.50;;;;;;;4.11;76.28;97220.83;1760040;81;21017;-82
2021/11/24 11:23:48;;;;;;;4.00;2.62;;;;;;;4.09;75.90;97215.80;1759245;81;21037;-82
2021/11/24 11:26:20;;;;;;;6.83;4.25;;;;;;;4.11;76.79;97213.11;1757378;81;21017;-82
2021/11/24 11:28:55;;;;;;;8.10;5.25;;;;;;;4.11;76.25;97207.97;1757643;82;21068;-82
2021/11/24 11:31:23;;;;;;;4.90;3.95;;;;;;;4.11;76.33;97202.82;1757349;82;21029;-82
2021/11/24 11:34:02;;;;;;;5.50;4.62;;;;;;;4.15;76.44;97201.63;1768874;78;21076;-82
2021/11/24 11:36:28;;;;;;;13.83;7.65;;;;;;;4.17;76.45;97195.42;1792606;80;21009;-82
2021/11/24 11:38:56;;;;;;;14.50;8.68;;;;;;;4.20;76.42;97198.22;1795402;80;20965;-82
2021/11/24 11:41:25;;;;;;;8.75;5.50;;;;;;;4.14;76.12;97191.81;1795139;80;21371;-82